sensor_id;sensor_type;location;lat;lon;timestamp;P1;durP1;ratioP1;P2;durP2;ratioP2
11970;SDS011;6045;42.682;23.294;2024-01-15T00:00:21;51.43;;;23.00;;
11970;SDS011;6045;42.682;23.294;2024-01-15T00:02:48;50.93;;;25.53;;
11970;SDS011;6045;42.682;23.294;2024-01-15T00:05:15;50.40;;;23.87;;
11970;SDS011;6045;42.682;23.294;2024-01-15T00:07:42;51.63;;;25.53;;
11970;SDS011;6045;42.682;23.294;2024-01-15T00:10:09;49.30;;;23.67;;
11970;SDS011;6045;42.682;23.294;2024-01-15T00:12:36;51.90;;;27.40;;
11970;SDS011;6045;42.682;23.294;2024-01-15T00:15:05;57.67;;;27.23;;
11970;SDS011;6045;42.682;23.294;2024-01-15T00:17:32;54.87;;;26.77;;
11970;SDS011;6045;42.682;23.294;2024-01-15T00:19:59;57.43;;;26.47;;
11970;SDS011;6045;42.682;23.294;2024-01-15T00:22:26;47.87;;;25.30;;
11970;SDS011;6045;42.682;23.294;2024-01-15T00:24:53;53.00;;;26.53;;
11970;SDS011;6045;42.682;23.294;2024-01-15T00:27:20;51.77;;;26.07;;
11970;SDS011;6045;42.682;23.294;2024-01-15T00:29:47;52.83;;;28.03;;
11970;SDS011;6045;42.682;23.294;2024-01-15T00:32:17;54.30;;;26.40;;
11970;SDS011;6045;42.682;23.294;2024-01-15T00:34:44;51.37;;;25.43;;
11970;SDS011;6045;42.682;23.294;2024-01-15T00:37:11;62.20;;;27.27;;
11970;SDS011;6045;42.682;23.294;2024-01-15T00:39:38;46.37;;;25.63;;
11970;SDS011;6045;42.682;23.294;2024-01-15T00:42:05;65.50;;;30.77;;
11970;SDS011;6045;42.682;23.294;2024-01-15T00:44:32;60.37;;;29.87;;
11970;SDS011;6045;42.682;23.294;2024-01-15T00:46:59;57.50;;;28.13;;
11970;SDS011;6045;42.682;23.294;2024-01-15T00:49:28;56.97;;;28.87;;
11970;SDS011;6045;42.682;23.294;2024-01-15T00:51:55;55.60;;;28.53;;
11970;SDS011;6045;42.682;23.294;2024-01-15T00:54:22;64.10;;;28.17;;
11970;SDS011;6045;42.682;23.294;2024-01-15T00:56:49;54.90;;;26.43;;
11970;SDS011;6045;42.682;23.294;2024-01-15T00:59:16;55.53;;;28.10;;
11970;SDS011;6045;42.682;23.294;2024-01-15T01:01:43;54.03;;;28.27;;
11970;SDS011;6045;42.682;23.294;2024-01-15T01:04:11;59.23;;;28.73;;
11970;SDS011;6045;42.682;23.294;2024-01-15T01:06:39;54.67;;;27.53;;
11970;SDS011;6045;42.682;23.294;2024-01-15T01:09:06;53.47;;;27.40;;
11970;SDS011;6045;42.682;23.294;2024-01-15T01:11:33;46.37;;;23.77;;
11970;SDS011;6045;42.682;23.294;2024-01-15T01:14:00;42.50;;;24.13;;
11970;SDS011;6045;42.682;23.294;2024-01-15T01:16:27;60.53;;;28.90;;
11970;SDS011;6045;42.682;23.294;2024-01-15T01:18:54;51.80;;;25.10;;
11970;SDS011;6045;42.682;23.294;2024-01-15T01:21:22;51.97;;;23.63;;
11970;SDS011;6045;42.682;23.294;2024-01-15T01:23:51;50.30;;;23.53;;
11970;SDS011;6045;42.682;23.294;2024-01-15T01:26:18;47.53;;;24.40;;
11970;SDS011;6045;42.682;23.294;2024-01-15T01:28:47;43.90;;;22.03;;
11970;SDS011;6045;42.682;23.294;2024-01-15T01:31:15;44.30;;;21.83;;
11970;SDS011;6045;42.682;23.294;2024-01-15T01:33:42;50.77;;;25.07;;
11970;SDS011;6045;42.682;23.294;2024-01-15T01:36:09;45.60;;;23.17;;
11970;SDS011;6045;42.682;23.294;2024-01-15T01:38:36;44.43;;;21.67;;
11970;SDS011;6045;42.682;23.294;2024-01-15T01:41:04;57.97;;;25.30;;
11970;SDS011;6045;42.682;23.294;2024-01-15T01:43:31;47.90;;;23.53;;
11970;SDS011;6045;42.682;23.294;2024-01-15T01:45:59;43.57;;;21.60;;
11970;SDS011;6045;42.682;23.294;2024-01-15T01:48:28;47.53;;;24.37;;
11970;SDS011;6045;42.682;23.294;2024-01-15T01:50:57;48.53;;;23.57;;
11970;SDS011;6045;42.682;23.294;2024-01-15T01:53:25;44.53;;;21.77;;
11970;SDS011;6045;42.682;23.294;2024-01-15T01:55:53;48.10;;;24.63;;
11970;SDS011;6045;42.682;23.294;2024-01-15T01:58:23;44.23;;;23.90;;
11970;SDS011;6045;42.682;23.294;2024-01-15T02:00:52;50.13;;;23.83;;
11970;SDS011;6045;42.682;23.294;2024-01-15T02:03:20;48.07;;;23.67;;
11970;SDS011;6045;42.682;23.294;2024-01-15T02:05:47;41.93;;;23.37;;
11970;SDS011;6045;42.682;23.294;2024-01-15T02:08:15;45.93;;;23.53;;
11970;SDS011;6045;42.682;23.294;2024-01-15T02:10:42;41.10;;;20.93;;
11970;SDS011;6045;42.682;23.294;2024-01-15T02:13:09;38.67;;;18.57;;
11970;SDS011;6045;42.682;23.294;2024-01-15T02:15:38;40.93;;;21.77;;
11970;SDS011;6045;42.682;23.294;2024-01-15T02:18:05;41.07;;;21.53;;
11970;SDS011;6045;42.682;23.294;2024-01-15T02:20:33;44.33;;;20.37;;
11970;SDS011;6045;42.682;23.294;2024-01-15T02:23:05;32.40;;;16.77;;
11970;SDS011;6045;42.682;23.294;2024-01-15T02:25:35;33.03;;;15.77;;
11970;SDS011;6045;42.682;23.294;2024-01-15T02:28:03;31.63;;;14.70;;
11970;SDS011;6045;42.682;23.294;2024-01-15T02:30:30;31.87;;;16.57;;
11970;SDS011;6045;42.682;23.294;2024-01-15T02:32:58;34.20;;;16.73;;
11970;SDS011;6045;42.682;23.294;2024-01-15T02:35:25;39.70;;;19.33;;
11970;SDS011;6045;42.682;23.294;2024-01-15T02:37:52;46.87;;;20.90;;
11970;SDS011;6045;42.682;23.294;2024-01-15T02:40:20;38.37;;;20.17;;
11970;SDS011;6045;42.682;23.294;2024-01-15T02:42:47;42.77;;;19.13;;
11970;SDS011;6045;42.682;23.294;2024-01-15T02:45:14;33.37;;;18.57;;
11970;SDS011;6045;42.682;23.294;2024-01-15T02:47:41;40.27;;;18.57;;
11970;SDS011;6045;42.682;23.294;2024-01-15T02:50:08;38.90;;;18.53;;
11970;SDS011;6045;42.682;23.294;2024-01-15T02:52:35;37.00;;;17.70;;
11970;SDS011;6045;42.682;23.294;2024-01-15T02:55:02;40.30;;;19.17;;
11970;SDS011;6045;42.682;23.294;2024-01-15T02:57:31;35.63;;;18.60;;
11970;SDS011;6045;42.682;23.294;2024-01-15T02:59:58;39.03;;;19.03;;
11970;SDS011;6045;42.682;23.294;2024-01-15T03:02:25;40.90;;;18.13;;
11970;SDS011;6045;42.682;23.294;2024-01-15T03:04:52;36.80;;;16.20;;
11970;SDS011;6045;42.682;23.294;2024-01-15T03:07:19;37.23;;;17.43;;
11970;SDS011;6045;42.682;23.294;2024-01-15T03:09:46;40.17;;;17.67;;
11970;SDS011;6045;42.682;23.294;2024-01-15T03:12:13;29.30;;;17.60;;
11970;SDS011;6045;42.682;23.294;2024-01-15T03:14:41;41.43;;;18.93;;
11970;SDS011;6045;42.682;23.294;2024-01-15T03:17:08;34.37;;;17.33;;
11970;SDS011;6045;42.682;23.294;2024-01-15T03:19:36;42.97;;;20.90;;
11970;SDS011;6045;42.682;23.294;2024-01-15T03:22:03;51.53;;;22.43;;
11970;SDS011;6045;42.682;23.294;2024-01-15T03:24:32;47.00;;;21.63;;
11970;SDS011;6045;42.682;23.294;2024-01-15T03:26:59;46.37;;;20.80;;
11970;SDS011;6045;42.682;23.294;2024-01-15T03:29:26;43.07;;;21.00;;
11970;SDS011;6045;42.682;23.294;2024-01-15T03:31:55;41.97;;;21.43;;
11970;SDS011;6045;42.682;23.294;2024-01-15T03:34:22;44.60;;;22.10;;
11970;SDS011;6045;42.682;23.294;2024-01-15T03:36:49;50.27;;;22.87;;
11970;SDS011;6045;42.682;23.294;2024-01-15T03:39:16;56.80;;;25.87;;
11970;SDS011;6045;42.682;23.294;2024-01-15T03:41:43;52.13;;;26.80;;
11970;SDS011;6045;42.682;23.294;2024-01-15T03:44:10;60.07;;;30.77;;
11970;SDS011;6045;42.682;23.294;2024-01-15T03:46:37;84.43;;;36.60;;
11970;SDS011;6045;42.682;23.294;2024-01-15T03:49:05;75.57;;;36.93;;
11970;SDS011;6045;42.682;23.294;2024-01-15T03:51:32;86.70;;;40.27;;
11970;SDS011;6045;42.682;23.294;2024-01-15T03:53:59;75.57;;;38.20;;
11970;SDS011;6045;42.682;23.294;2024-01-15T03:56:26;81.83;;;38.03;;
11970;SDS011;6045;42.682;23.294;2024-01-15T03:58:53;77.73;;;38.97;;
11970;SDS011;6045;42.682;23.294;2024-01-15T04:01:20;89.00;;;41.03;;
11970;SDS011;6045;42.682;23.294;2024-01-15T04:03:46;84.90;;;41.43;;
11970;SDS011;6045;42.682;23.294;2024-01-15T04:06:15;85.37;;;41.43;;
11970;SDS011;6045;42.682;23.294;2024-01-15T04:08:42;87.17;;;40.43;;
11970;SDS011;6045;42.682;23.294;2024-01-15T04:11:09;82.20;;;41.37;;
11970;SDS011;6045;42.682;23.294;2024-01-15T04:13:36;89.17;;;42.83;;
11970;SDS011;6045;42.682;23.294;2024-01-15T04:16:03;95.23;;;42.53;;
11970;SDS011;6045;42.682;23.294;2024-01-15T04:18:30;90.30;;;41.87;;
11970;SDS011;6045;42.682;23.294;2024-01-15T04:20:57;82.23;;;41.60;;
11970;SDS011;6045;42.682;23.294;2024-01-15T04:23:26;92.90;;;41.60;;
11970;SDS011;6045;42.682;23.294;2024-01-15T04:25:52;89.10;;;41.97;;
11970;SDS011;6045;42.682;23.294;2024-01-15T04:28:19;90.97;;;42.07;;
11970;SDS011;6045;42.682;23.294;2024-01-15T04:30:46;92.97;;;41.80;;
11970;SDS011;6045;42.682;23.294;2024-01-15T04:33:13;85.67;;;40.80;;
11970;SDS011;6045;42.682;23.294;2024-01-15T04:35:40;78.00;;;41.10;;
11970;SDS011;6045;42.682;23.294;2024-01-15T04:38:07;89.03;;;42.77;;
11970;SDS011;6045;42.682;23.294;2024-01-15T04:40:36;97.27;;;42.97;;
11970;SDS011;6045;42.682;23.294;2024-01-15T04:43:03;88.50;;;42.53;;
11970;SDS011;6045;42.682;23.294;2024-01-15T04:45:30;77.57;;;41.20;;
11970;SDS011;6045;42.682;23.294;2024-01-15T04:47:57;93.90;;;41.70;;
11970;SDS011;6045;42.682;23.294;2024-01-15T04:50:24;81.53;;;40.67;;
11970;SDS011;6045;42.682;23.294;2024-01-15T04:52:51;77.30;;;37.50;;
11970;SDS011;6045;42.682;23.294;2024-01-15T04:55:18;82.67;;;39.00;;
11970;SDS011;6045;42.682;23.294;2024-01-15T04:57:46;84.33;;;39.53;;
11970;SDS011;6045;42.682;23.294;2024-01-15T05:00:13;80.70;;;38.13;;
11970;SDS011;6045;42.682;23.294;2024-01-15T05:02:41;82.17;;;37.43;;
11970;SDS011;6045;42.682;23.294;2024-01-15T05:05:08;85.53;;;38.50;;
11970;SDS011;6045;42.682;23.294;2024-01-15T05:07:35;87.27;;;41.10;;
11970;SDS011;6045;42.682;23.294;2024-01-15T05:10:02;76.77;;;38.13;;
11970;SDS011;6045;42.682;23.294;2024-01-15T05:12:29;84.27;;;41.70;;
11970;SDS011;6045;42.682;23.294;2024-01-15T05:14:57;79.53;;;39.63;;
11970;SDS011;6045;42.682;23.294;2024-01-15T05:17:24;81.93;;;41.07;;
11970;SDS011;6045;42.682;23.294;2024-01-15T05:19:51;89.73;;;42.67;;
11970;SDS011;6045;42.682;23.294;2024-01-15T05:22:18;86.80;;;39.07;;
11970;SDS011;6045;42.682;23.294;2024-01-15T05:24:46;81.00;;;40.57;;
11970;SDS011;6045;42.682;23.294;2024-01-15T05:27:13;98.23;;;42.40;;
11970;SDS011;6045;42.682;23.294;2024-01-15T05:29:40;76.60;;;38.03;;
11970;SDS011;6045;42.682;23.294;2024-01-15T05:32:08;77.47;;;39.27;;
11970;SDS011;6045;42.682;23.294;2024-01-15T05:34:35;76.30;;;38.73;;
11970;SDS011;6045;42.682;23.294;2024-01-15T05:37:02;79.30;;;38.97;;
11970;SDS011;6045;42.682;23.294;2024-01-15T05:39:29;86.57;;;43.50;;
11970;SDS011;6045;42.682;23.294;2024-01-15T05:41:57;87.53;;;39.17;;
11970;SDS011;6045;42.682;23.294;2024-01-15T05:44:24;86.87;;;41.90;;
11970;SDS011;6045;42.682;23.294;2024-01-15T05:46:51;79.93;;;38.17;;
11970;SDS011;6045;42.682;23.294;2024-01-15T05:49:20;87.40;;;39.73;;
11970;SDS011;6045;42.682;23.294;2024-01-15T05:51:47;86.63;;;37.40;;
11970;SDS011;6045;42.682;23.294;2024-01-15T05:54:14;87.70;;;40.70;;
11970;SDS011;6045;42.682;23.294;2024-01-15T05:56:41;73.80;;;39.07;;
11970;SDS011;6045;42.682;23.294;2024-01-15T05:59:08;85.07;;;38.17;;
11970;SDS011;6045;42.682;23.294;2024-01-15T06:01:35;83.27;;;39.57;;
11970;SDS011;6045;42.682;23.294;2024-01-15T06:04:02;81.47;;;38.77;;
11970;SDS011;6045;42.682;23.294;2024-01-15T06:06:31;75.87;;;38.47;;
11970;SDS011;6045;42.682;23.294;2024-01-15T06:08:58;69.47;;;36.90;;
11970;SDS011;6045;42.682;23.294;2024-01-15T06:11:30;82.97;;;38.30;;
11970;SDS011;6045;42.682;23.294;2024-01-15T06:13:57;74.80;;;35.80;;
11970;SDS011;6045;42.682;23.294;2024-01-15T06:16:25;71.20;;;35.17;;
11970;SDS011;6045;42.682;23.294;2024-01-15T06:18:52;80.33;;;37.97;;
11970;SDS011;6045;42.682;23.294;2024-01-15T06:21:19;76.43;;;38.83;;
11970;SDS011;6045;42.682;23.294;2024-01-15T06:23:48;78.20;;;41.57;;
11970;SDS011;6045;42.682;23.294;2024-01-15T06:26:15;78.60;;;39.53;;
11970;SDS011;6045;42.682;23.294;2024-01-15T06:28:42;83.50;;;39.07;;
11970;SDS011;6045;42.682;23.294;2024-01-15T06:31:09;79.50;;;39.30;;
11970;SDS011;6045;42.682;23.294;2024-01-15T06:33:36;79.43;;;38.90;;
11970;SDS011;6045;42.682;23.294;2024-01-15T06:36:03;83.23;;;40.90;;
11970;SDS011;6045;42.682;23.294;2024-01-15T06:38:30;75.13;;;38.43;;
11970;SDS011;6045;42.682;23.294;2024-01-15T06:40:59;75.30;;;35.53;;
11970;SDS011;6045;42.682;23.294;2024-01-15T06:43:26;78.83;;;39.83;;
11970;SDS011;6045;42.682;23.294;2024-01-15T06:45:53;71.53;;;35.83;;
11970;SDS011;6045;42.682;23.294;2024-01-15T06:48:20;76.60;;;37.33;;
11970;SDS011;6045;42.682;23.294;2024-01-15T06:50:47;72.97;;;38.70;;
11970;SDS011;6045;42.682;23.294;2024-01-15T06:53:14;79.23;;;36.57;;
11970;SDS011;6045;42.682;23.294;2024-01-15T06:55:41;79.83;;;37.97;;
11970;SDS011;6045;42.682;23.294;2024-01-15T06:58:09;72.23;;;38.33;;
11970;SDS011;6045;42.682;23.294;2024-01-15T07:00:39;72.50;;;37.17;;
11970;SDS011;6045;42.682;23.294;2024-01-15T07:03:11;70.20;;;34.43;;
11970;SDS011;6045;42.682;23.294;2024-01-15T07:05:38;75.93;;;37.10;;
11970;SDS011;6045;42.682;23.294;2024-01-15T07:08:08;79.53;;;36.20;;
11970;SDS011;6045;42.682;23.294;2024-01-15T07:10:35;64.10;;;34.43;;
11970;SDS011;6045;42.682;23.294;2024-01-15T07:13:02;62.10;;;31.17;;
11970;SDS011;6045;42.682;23.294;2024-01-15T07:15:31;52.13;;;29.27;;
11970;SDS011;6045;42.682;23.294;2024-01-15T07:17:58;68.27;;;32.50;;
11970;SDS011;6045;42.682;23.294;2024-01-15T07:20:25;57.40;;;27.37;;
11970;SDS011;6045;42.682;23.294;2024-01-15T07:22:52;53.47;;;29.00;;
11970;SDS011;6045;42.682;23.294;2024-01-15T07:25:19;58.30;;;28.60;;
11970;SDS011;6045;42.682;23.294;2024-01-15T07:27:46;64.50;;;30.57;;
11970;SDS011;6045;42.682;23.294;2024-01-15T07:30:13;54.37;;;29.10;;
11970;SDS011;6045;42.682;23.294;2024-01-15T07:32:41;49.43;;;26.00;;
11970;SDS011;6045;42.682;23.294;2024-01-15T07:35:08;59.03;;;29.20;;
11970;SDS011;6045;42.682;23.294;2024-01-15T07:37:36;53.27;;;28.10;;
11970;SDS011;6045;42.682;23.294;2024-01-15T07:40:03;55.67;;;27.50;;
11970;SDS011;6045;42.682;23.294;2024-01-15T07:42:39;50.63;;;28.03;;
11970;SDS011;6045;42.682;23.294;2024-01-15T07:45:07;62.63;;;28.80;;
11970;SDS011;6045;42.682;23.294;2024-01-15T07:47:35;62.97;;;29.77;;
11970;SDS011;6045;42.682;23.294;2024-01-15T07:50:03;54.37;;;27.27;;
11970;SDS011;6045;42.682;23.294;2024-01-15T07:52:30;56.50;;;27.60;;
11970;SDS011;6045;42.682;23.294;2024-01-15T07:54:57;50.13;;;27.93;;
11970;SDS011;6045;42.682;23.294;2024-01-15T07:57:25;61.03;;;30.40;;
11970;SDS011;6045;42.682;23.294;2024-01-15T07:59:52;58.57;;;28.30;;
11970;SDS011;6045;42.682;23.294;2024-01-15T08:02:19;70.87;;;34.83;;
11970;SDS011;6045;42.682;23.294;2024-01-15T08:04:46;64.63;;;31.33;;
11970;SDS011;6045;42.682;23.294;2024-01-15T08:07:15;63.57;;;29.97;;
11970;SDS011;6045;42.682;23.294;2024-01-15T08:09:43;66.63;;;34.07;;
11970;SDS011;6045;42.682;23.294;2024-01-15T08:12:11;66.47;;;34.00;;
11970;SDS011;6045;42.682;23.294;2024-01-15T08:14:38;68.53;;;33.20;;
11970;SDS011;6045;42.682;23.294;2024-01-15T08:17:05;69.33;;;35.60;;
11970;SDS011;6045;42.682;23.294;2024-01-15T08:19:32;64.47;;;35.00;;
11970;SDS011;6045;42.682;23.294;2024-01-15T08:21:59;64.87;;;33.90;;
11970;SDS011;6045;42.682;23.294;2024-01-15T08:24:27;59.17;;;29.90;;
11970;SDS011;6045;42.682;23.294;2024-01-15T08:26:54;53.90;;;30.70;;
11970;SDS011;6045;42.682;23.294;2024-01-15T08:29:22;70.30;;;35.73;;
11970;SDS011;6045;42.682;23.294;2024-01-15T08:31:49;108.23;;;53.33;;
11970;SDS011;6045;42.682;23.294;2024-01-15T08:34:16;66.33;;;32.63;;
11970;SDS011;6045;42.682;23.294;2024-01-15T08:36:43;55.47;;;28.77;;
11970;SDS011;6045;42.682;23.294;2024-01-15T08:39:10;54.37;;;26.27;;
11970;SDS011;6045;42.682;23.294;2024-01-15T08:41:39;48.80;;;27.23;;
11970;SDS011;6045;42.682;23.294;2024-01-15T08:44:06;50.73;;;26.73;;
11970;SDS011;6045;42.682;23.294;2024-01-15T08:46:33;46.73;;;25.20;;
11970;SDS011;6045;42.682;23.294;2024-01-15T08:49:00;51.03;;;24.67;;
11970;SDS011;6045;42.682;23.294;2024-01-15T08:51:28;40.67;;;23.07;;
11970;SDS011;6045;42.682;23.294;2024-01-15T08:53:56;43.27;;;24.47;;
11970;SDS011;6045;42.682;23.294;2024-01-15T08:56:23;59.23;;;26.90;;
11970;SDS011;6045;42.682;23.294;2024-01-15T08:58:53;44.60;;;24.00;;
11970;SDS011;6045;42.682;23.294;2024-01-15T09:01:20;43.57;;;22.57;;
11970;SDS011;6045;42.682;23.294;2024-01-15T09:03:48;46.67;;;22.37;;
11970;SDS011;6045;42.682;23.294;2024-01-15T09:06:15;43.97;;;23.70;;
11970;SDS011;6045;42.682;23.294;2024-01-15T09:08:42;45.30;;;22.23;;
11970;SDS011;6045;42.682;23.294;2024-01-15T09:11:09;40.63;;;21.67;;
11970;SDS011;6045;42.682;23.294;2024-01-15T09:13:36;40.87;;;21.37;;
11970;SDS011;6045;42.682;23.294;2024-01-15T09:16:04;44.27;;;22.00;;
11970;SDS011;6045;42.682;23.294;2024-01-15T09:18:31;35.63;;;22.20;;
11970;SDS011;6045;42.682;23.294;2024-01-15T09:20:58;44.10;;;21.83;;
11970;SDS011;6045;42.682;23.294;2024-01-15T09:23:25;41.27;;;21.07;;
11970;SDS011;6045;42.682;23.294;2024-01-15T09:25:52;40.37;;;21.00;;
11970;SDS011;6045;42.682;23.294;2024-01-15T09:28:19;41.07;;;20.83;;
11970;SDS011;6045;42.682;23.294;2024-01-15T09:30:46;51.97;;;27.53;;
11970;SDS011;6045;42.682;23.294;2024-01-15T09:33:17;69.90;;;40.07;;
11970;SDS011;6045;42.682;23.294;2024-01-15T09:35:44;78.07;;;36.23;;
11970;SDS011;6045;42.682;23.294;2024-01-15T09:38:11;75.60;;;39.57;;
11970;SDS011;6045;42.682;23.294;2024-01-15T09:40:38;73.23;;;37.87;;
11970;SDS011;6045;42.682;23.294;2024-01-15T09:43:09;72.57;;;38.37;;
11970;SDS011;6045;42.682;23.294;2024-01-15T09:45:36;69.23;;;36.77;;
11970;SDS011;6045;42.682;23.294;2024-01-15T09:48:04;72.90;;;37.03;;
11970;SDS011;6045;42.682;23.294;2024-01-15T09:50:33;71.53;;;39.47;;
11970;SDS011;6045;42.682;23.294;2024-01-15T09:53:00;75.10;;;37.13;;
11970;SDS011;6045;42.682;23.294;2024-01-15T09:55:31;62.63;;;35.27;;
11970;SDS011;6045;42.682;23.294;2024-01-15T09:57:59;54.13;;;28.10;;
11970;SDS011;6045;42.682;23.294;2024-01-15T10:00:27;59.33;;;33.30;;
11970;SDS011;6045;42.682;23.294;2024-01-15T10:02:56;82.93;;;47.33;;
11970;SDS011;6045;42.682;23.294;2024-01-15T10:05:24;74.43;;;43.53;;
11970;SDS011;6045;42.682;23.294;2024-01-15T10:07:53;95.83;;;52.00;;
11970;SDS011;6045;42.682;23.294;2024-01-15T10:10:21;95.00;;;53.50;;
11970;SDS011;6045;42.682;23.294;2024-01-15T10:12:48;98.30;;;53.60;;
11970;SDS011;6045;42.682;23.294;2024-01-15T10:15:16;86.73;;;51.07;;
11970;SDS011;6045;42.682;23.294;2024-01-15T10:17:43;71.57;;;42.70;;
11970;SDS011;6045;42.682;23.294;2024-01-15T10:20:10;67.50;;;45.17;;
11970;SDS011;6045;42.682;23.294;2024-01-15T10:22:39;75.47;;;43.07;;
11970;SDS011;6045;42.682;23.294;2024-01-15T10:25:11;66.10;;;42.73;;
11970;SDS011;6045;42.682;23.294;2024-01-15T10:27:38;68.13;;;39.47;;
11970;SDS011;6045;42.682;23.294;2024-01-15T10:30:09;68.20;;;41.50;;
11970;SDS011;6045;42.682;23.294;2024-01-15T10:32:39;57.10;;;35.53;;
11970;SDS011;6045;42.682;23.294;2024-01-15T10:35:08;54.00;;;33.45;;
11970;SDS011;6045;42.682;23.294;2024-01-15T10:37:41;46.85;;;31.45;;
11970;SDS011;6045;42.682;23.294;2024-01-15T10:40:08;47.00;;;29.53;;
11970;SDS011;6045;42.682;23.294;2024-01-15T10:42:37;51.80;;;29.23;;
11970;SDS011;6045;42.682;23.294;2024-01-15T10:45:04;46.37;;;28.57;;
11970;SDS011;6045;42.682;23.294;2024-01-15T10:47:37;38.90;;;26.37;;
11970;SDS011;6045;42.682;23.294;2024-01-15T10:50:04;40.87;;;25.60;;
11970;SDS011;6045;42.682;23.294;2024-01-15T10:52:33;41.43;;;25.07;;
11970;SDS011;6045;42.682;23.294;2024-01-15T10:55:00;37.90;;;24.07;;
11970;SDS011;6045;42.682;23.294;2024-01-15T10:57:29;38.50;;;21.60;;
11970;SDS011;6045;42.682;23.294;2024-01-15T10:59:58;34.67;;;21.47;;
11970;SDS011;6045;42.682;23.294;2024-01-15T11:02:25;34.53;;;19.97;;
11970;SDS011;6045;42.682;23.294;2024-01-15T11:04:52;34.50;;;18.97;;
11970;SDS011;6045;42.682;23.294;2024-01-15T11:07:20;30.87;;;17.93;;
11970;SDS011;6045;42.682;23.294;2024-01-15T11:09:51;26.73;;;17.60;;
11970;SDS011;6045;42.682;23.294;2024-01-15T11:12:18;30.27;;;18.43;;
11970;SDS011;6045;42.682;23.294;2024-01-15T11:14:45;28.50;;;19.43;;
11970;SDS011;6045;42.682;23.294;2024-01-15T11:17:15;31.93;;;19.07;;
11970;SDS011;6045;42.682;23.294;2024-01-15T11:19:43;31.93;;;17.93;;
11970;SDS011;6045;42.682;23.294;2024-01-15T11:22:11;28.87;;;17.93;;
11970;SDS011;6045;42.682;23.294;2024-01-15T11:25:17;28.52;;;17.92;;
11970;SDS011;6045;42.682;23.294;2024-01-15T11:27:45;24.88;;;16.13;;
11970;SDS011;6045;42.682;23.294;2024-01-15T11:30:16;27.13;;;16.17;;
11970;SDS011;6045;42.682;23.294;2024-01-15T11:32:46;124.10;;;62.20;;
11970;SDS011;6045;42.682;23.294;2024-01-15T11:35:13;48.42;;;29.05;;
11970;SDS011;6045;42.682;23.294;2024-01-15T11:37:56;23.15;;;15.48;;
11970;SDS011;6045;42.682;23.294;2024-01-15T11:43:13;23.03;;;15.03;;
11970;SDS011;6045;42.682;23.294;2024-01-15T11:45:42;22.90;;;14.57;;
11970;SDS011;6045;42.682;23.294;2024-01-15T11:48:11;24.63;;;14.47;;
11970;SDS011;6045;42.682;23.294;2024-01-15T11:50:41;22.87;;;14.87;;
11970;SDS011;6045;42.682;23.294;2024-01-15T11:53:13;20.47;;;14.10;;
11970;SDS011;6045;42.682;23.294;2024-01-15T11:55:44;22.17;;;13.00;;
11970;SDS011;6045;42.682;23.294;2024-01-15T11:58:13;25.47;;;13.83;;
11970;SDS011;6045;42.682;23.294;2024-01-15T12:00:42;26.03;;;13.93;;
11970;SDS011;6045;42.682;23.294;2024-01-15T12:03:16;24.50;;;13.90;;
11970;SDS011;6045;42.682;23.294;2024-01-15T12:05:54;19.43;;;12.60;;
11970;SDS011;6045;42.682;23.294;2024-01-15T12:08:25;24.20;;;12.67;;
11970;SDS011;6045;42.682;23.294;2024-01-15T12:11:03;19.97;;;12.20;;
11970;SDS011;6045;42.682;23.294;2024-01-15T12:13:33;23.07;;;13.03;;
11970;SDS011;6045;42.682;23.294;2024-01-15T12:16:01;24.10;;;13.03;;
11970;SDS011;6045;42.682;23.294;2024-01-15T12:18:30;21.20;;;13.63;;
11970;SDS011;6045;42.682;23.294;2024-01-15T12:20:57;22.87;;;13.37;;
11970;SDS011;6045;42.682;23.294;2024-01-15T12:23:26;24.70;;;14.37;;
11970;SDS011;6045;42.682;23.294;2024-01-15T12:25:57;24.80;;;13.90;;
11970;SDS011;6045;42.682;23.294;2024-01-15T12:28:29;25.17;;;15.03;;
11970;SDS011;6045;42.682;23.294;2024-01-15T12:41:31;26.80;;;15.40;;
11970;SDS011;6045;42.682;23.294;2024-01-15T12:49:46;30.43;;;16.37;;
11970;SDS011;6045;42.682;23.294;2024-01-15T12:52:13;24.37;;;15.90;;
11970;SDS011;6045;42.682;23.294;2024-01-15T12:54:40;24.53;;;14.90;;
11970;SDS011;6045;42.682;23.294;2024-01-15T12:57:08;26.70;;;14.90;;
11970;SDS011;6045;42.682;23.294;2024-01-15T12:59:35;32.43;;;15.57;;
11970;SDS011;6045;42.682;23.294;2024-01-15T13:02:02;32.23;;;15.80;;
11970;SDS011;6045;42.682;23.294;2024-01-15T13:04:29;27.57;;;15.30;;
11970;SDS011;6045;42.682;23.294;2024-01-15T13:06:56;32.37;;;16.50;;
11970;SDS011;6045;42.682;23.294;2024-01-15T13:09:25;27.23;;;14.53;;
11970;SDS011;6045;42.682;23.294;2024-01-15T13:11:52;29.20;;;16.33;;
11970;SDS011;6045;42.682;23.294;2024-01-15T13:14:20;25.20;;;15.93;;
11970;SDS011;6045;42.682;23.294;2024-01-15T13:16:47;32.40;;;16.00;;
11970;SDS011;6045;42.682;23.294;2024-01-15T13:19:14;31.10;;;16.83;;
11970;SDS011;6045;42.682;23.294;2024-01-15T13:21:41;32.83;;;15.73;;
11970;SDS011;6045;42.682;23.294;2024-01-15T13:24:08;26.20;;;15.43;;
11970;SDS011;6045;42.682;23.294;2024-01-15T13:26:36;28.53;;;15.50;;
11970;SDS011;6045;42.682;23.294;2024-01-15T13:29:03;30.77;;;16.50;;
11970;SDS011;6045;42.682;23.294;2024-01-15T13:31:32;28.33;;;15.03;;
11970;SDS011;6045;42.682;23.294;2024-01-15T13:33:59;32.63;;;17.47;;
11970;SDS011;6045;42.682;23.294;2024-01-15T13:36:26;36.20;;;17.83;;
11970;SDS011;6045;42.682;23.294;2024-01-15T13:38:53;31.73;;;17.17;;
11970;SDS011;6045;42.682;23.294;2024-01-15T13:41:21;31.60;;;15.77;;
11970;SDS011;6045;42.682;23.294;2024-01-15T13:43:52;31.97;;;16.00;;
11970;SDS011;6045;42.682;23.294;2024-01-15T13:46:20;33.33;;;16.43;;
11970;SDS011;6045;42.682;23.294;2024-01-15T13:48:49;35.20;;;16.73;;
11970;SDS011;6045;42.682;23.294;2024-01-15T13:51:16;29.57;;;16.70;;
11970;SDS011;6045;42.682;23.294;2024-01-15T13:53:43;34.57;;;17.60;;
11970;SDS011;6045;42.682;23.294;2024-01-15T13:56:10;37.90;;;17.13;;
11970;SDS011;6045;42.682;23.294;2024-01-15T13:58:37;33.60;;;16.03;;
11970;SDS011;6045;42.682;23.294;2024-01-15T14:01:04;30.60;;;16.53;;
11970;SDS011;6045;42.682;23.294;2024-01-15T14:03:31;29.23;;;16.67;;
11970;SDS011;6045;42.682;23.294;2024-01-15T14:06:00;27.07;;;15.93;;
11970;SDS011;6045;42.682;23.294;2024-01-15T14:08:29;30.07;;;17.07;;
11970;SDS011;6045;42.682;23.294;2024-01-15T14:10:55;35.33;;;17.33;;
11970;SDS011;6045;42.682;23.294;2024-01-15T14:13:23;31.40;;;15.80;;
11970;SDS011;6045;42.682;23.294;2024-01-15T14:15:50;26.97;;;15.83;;
11970;SDS011;6045;42.682;23.294;2024-01-15T14:18:21;26.57;;;16.40;;
11970;SDS011;6045;42.682;23.294;2024-01-15T14:20:47;34.67;;;16.93;;
11970;SDS011;6045;42.682;23.294;2024-01-15T14:23:16;31.07;;;17.33;;
11970;SDS011;6045;42.682;23.294;2024-01-15T14:25:43;37.73;;;16.57;;
11970;SDS011;6045;42.682;23.294;2024-01-15T14:28:10;29.33;;;16.93;;
11970;SDS011;6045;42.682;23.294;2024-01-15T14:30:37;27.97;;;15.87;;
11970;SDS011;6045;42.682;23.294;2024-01-15T14:33:04;31.23;;;16.13;;
11970;SDS011;6045;42.682;23.294;2024-01-15T14:35:31;32.90;;;17.17;;
11970;SDS011;6045;42.682;23.294;2024-01-15T14:37:58;31.77;;;16.37;;
11970;SDS011;6045;42.682;23.294;2024-01-15T14:40:26;29.53;;;16.63;;
11970;SDS011;6045;42.682;23.294;2024-01-15T14:42:54;34.93;;;16.07;;